Time;durP1;ratioP1;P1;durP2;ratioP2;P2;SDS_P1;SDS_P2;PMS_P1;PMS_P2;Temp;Humidity;BMP_temperature;BMP_pressure;BME280_temperature;BME280_humidity;BME280_pressure;Samples;Min_cycle;Max_cycle;Signal;HPM_P1;HPM_P2
2023/03/08 00:00:35;;;;;;;88.53;77.22;;;;;;;;;;5055137;28;20236;-53
2023/03/08 00:03:01;;;;;;;86.35;76.50;;;;;;;;;;5057417;28;20579;-53
2023/03/08 00:05:27;;;;;;;86.40;74.00;;;;;;;;;;5046110;28;20197;-53
2023/03/08 00:07:53;;;;;;;83.75;71.60;;;;;;;;;;5059430;28;20187;-54
2023/03/08 00:10:19;;;;;;;80.65;69.05;;;;;;;;;;5053454;28;20182;-54
2023/03/08 00:12:45;;;;;;;77.93;66.93;;;;;;;;;;5048001;28;20458;-54
2023/03/08 00:15:11;;;;;;;76.90;65.32;;;;;;;;;;5055520;28;20182;-54
2023/03/08 00:17:38;;;;;;;73.78;62.20;;;;;;;;;;5040565;28;20213;-54
2023/03/08 00:20:05;;;;;;;70.93;61.20;;;;;;;;;;5042490;28;20199;-54
2023/03/08 00:22:34;;;;;;;71.55;60.25;;;;;;;;;;5047277;28;20586;-54
2023/03/08 00:25:00;;;;;;;67.38;56.65;;;;;;;;;;5051131;28;20187;-53
2023/03/08 00:27:26;;;;;;;66.43;56.90;;;;;;;;;;5056234;28;20203;-54
2023/03/08 00:29:52;;;;;;;66.78;56.47;;;;;;;;;;5061120;28;20222;-54
2023/03/08 00:32:18;;;;;;;63.22;55.05;;;;;;;;;;5048872;28;20186;-53
2023/03/08 00:34:45;;;;;;;61.47;52.90;;;;;;;;;;5052343;28;20195;-53
2023/03/08 00:37:12;;;;;;;59.13;50.78;;;;;;;;;;5046332;28;20175;-53
2023/03/08 00:39:37;;;;;;;59.00;51.22;;;;;;;;;;5055414;28;20187;-53
2023/03/08 00:42:03;;;;;;;56.10;49.50;;;;;;;;;;5049465;28;20187;-53
2023/03/08 00:44:29;;;;;;;56.75;48.47;;;;;;;;;;5048938;28;20187;-53
2023/03/08 00:46:55;;;;;;;56.15;48.00;;;;;;;;;;5056243;28;20544;-54
2023/03/08 00:49:21;;;;;;;55.17;47.40;;;;;;;;;;5059248;28;20197;-54
2023/03/08 00:51:47;;;;;;;51.38;45.35;;;;;;;;;;5044099;28;20279;-54
2023/03/08 00:54:13;;;;;;;50.58;44.50;;;;;;;;;;5057100;28;20176;-54
2023/03/08 00:56:39;;;;;;;49.95;43.53;;;;;;;;;;5054143;28;20233;-54
2023/03/08 00:59:05;;;;;;;49.88;44.00;;;;;;;;;;5059128;28;20190;-54
2023/03/08 01:01:31;;;;;;;46.80;41.00;;;;;;;;;;5057588;28;20210;-54
2023/03/08 01:03:58;;;;;;;46.13;41.08;;;;;;;;;;5047779;28;20573;-54
2023/03/08 01:06:23;;;;;;;46.83;40.88;;;;;;;;;;5055635;28;20227;-54
2023/03/08 01:08:49;;;;;;;44.88;39.00;;;;;;;;;;5041405;28;20214;-54
2023/03/08 01:11:17;;;;;;;42.88;37.47;;;;;;;;;;5058529;28;20186;-54
2023/03/08 01:13:43;;;;;;;42.33;37.55;;;;;;;;;;5042639;28;20233;-54
2023/03/08 01:16:19;;;;;;;41.97;36.58;;;;;;;;;;5047707;28;20179;-54
2023/03/08 01:18:45;;;;;;;40.45;36.03;;;;;;;;;;5047143;28;20190;-54
2023/03/08 01:21:11;;;;;;;40.85;36.33;;;;;;;;;;5035679;28;20233;-54
2023/03/08 01:23:37;;;;;;;40.40;35.95;;;;;;;;;;5038832;28;20195;-54
2023/03/08 01:26:05;;;;;;;37.78;33.35;;;;;;;;;;5051646;28;20237;-54
2023/03/08 01:28:31;;;;;;;37.13;33.05;;;;;;;;;;5052681;28;20487;-54
2023/03/08 01:31:01;;;;;;;36.03;32.15;;;;;;;;;;5058299;28;20224;-54
2023/03/08 01:33:27;;;;;;;35.05;31.27;;;;;;;;;;5058628;28;20284;-54
2023/03/08 01:35:52;;;;;;;35.28;31.52;;;;;;;;;;5064288;28;20328;-54
2023/03/08 01:38:18;;;;;;;35.63;31.48;;;;;;;;;;5042619;28;20187;-54
2023/03/08 01:40:44;;;;;;;33.95;30.27;;;;;;;;;;5052399;28;20230;-54
2023/03/08 01:43:23;;;;;;;32.25;28.75;;;;;;;;;;5040289;28;20191;-54
2023/03/08 01:46:04;;;;;;;32.95;29.42;;;;;;;;;;5058670;28;20210;-54
2023/03/08 01:48:32;;;;;;;31.83;28.35;;;;;;;;;;5064601;28;20182;-54
2023/03/08 01:50:59;;;;;;;30.85;27.52;;;;;;;;;;5055178;28;20178;-54
2023/03/08 01:53:25;;;;;;;30.52;27.25;;;;;;;;;;5050476;28;20187;-54
2023/03/08 01:55:51;;;;;;;29.27;26.17;;;;;;;;;;5050526;28;20245;-54
2023/03/08 01:58:17;;;;;;;28.48;25.38;;;;;;;;;;5047895;28;20265;-54
2023/03/08 02:00:43;;;;;;;28.58;25.58;;;;;;;;;;5054081;28;20619;-54
2023/03/08 02:03:10;;;;;;;27.40;24.50;;;;;;;;;;5045847;28;20198;-54
2023/03/08 02:05:38;;;;;;;30.05;26.30;;;;;;;;;;5067168;28;20221;-54
2023/03/08 02:08:04;;;;;;;27.30;23.80;;;;;;;;;;5054715;28;20179;-54
2023/03/08 02:10:30;;;;;;;27.30;24.05;;;;;;;;;;5051496;28;20671;-54
2023/03/08 02:12:56;;;;;;;25.25;22.55;;;;;;;;;;5047907;28;20186;-54
2023/03/08 02:15:22;;;;;;;25.65;22.92;;;;;;;;;;5058159;28;20174;-54
2023/03/08 02:17:48;;;;;;;24.38;21.77;;;;;;;;;;5047977;28;20224;-54
2023/03/08 02:20:15;;;;;;;25.00;22.10;;;;;;;;;;5055072;28;20183;-55
2023/03/08 02:22:42;;;;;;;25.00;22.05;;;;;;;;;;5052162;28;20226;-54
2023/03/08 02:25:15;;;;;;;23.30;20.77;;;;;;;;;;5059700;28;20440;-54
2023/03/08 02:27:41;;;;;;;24.02;21.00;;;;;;;;;;5050798;28;20210;-54
2023/03/08 02:30:08;;;;;;;22.92;20.52;;;;;;;;;;5055950;28;20230;-54
2023/03/08 02:32:34;;;;;;;21.25;19.05;;;;;;;;;;5051401;28;20675;-54
2023/03/08 02:35:01;;;;;;;21.13;18.92;;;;;;;;;;5060252;28;20186;-54
2023/03/08 02:37:26;;;;;;;21.02;18.63;;;;;;;;;;5049617;28;20255;-55
2023/03/08 02:39:52;;;;;;;20.60;18.27;;;;;;;;;;5053347;28;20862;-55
2023/03/08 02:42:18;;;;;;;20.50;18.30;;;;;;;;;;5047791;28;20577;-54
2023/03/08 02:44:44;;;;;;;18.70;16.80;;;;;;;;;;5041167;28;20199;-54
2023/03/08 02:47:10;;;;;;;19.23;17.23;;;;;;;;;;5054668;28;20215;-55
2023/03/08 02:49:36;;;;;;;17.88;15.98;;;;;;;;;;5043699;28;20187;-55
2023/03/08 02:52:02;;;;;;;18.85;16.85;;;;;;;;;;5051219;28;20183;-55
2023/03/08 02:54:28;;;;;;;18.08;16.15;;;;;;;;;;5067426;28;20772;-55
2023/03/08 02:56:54;;;;;;;18.20;16.30;;;;;;;;;;5046334;28;20183;-55
2023/03/08 02:59:20;;;;;;;17.35;15.55;;;;;;;;;;5048986;28;20194;-54
2023/03/08 03:01:46;;;;;;;16.95;15.25;;;;;;;;;;5049880;28;20199;-54
2023/03/08 03:04:12;;;;;;;16.52;14.82;;;;;;;;;;5063143;28;20201;-54
2023/03/08 03:06:38;;;;;;;17.25;15.55;;;;;;;;;;5056266;28;20210;-54
2023/03/08 03:09:07;;;;;;;16.27;14.57;;;;;;;;;;5058041;28;20242;-54
2023/03/08 03:11:33;;;;;;;16.08;14.20;;;;;;;;;;5052024;28;20180;-54
2023/03/08 03:13:59;;;;;;;16.20;14.50;;;;;;;;;;5070926;28;20466;-54
2023/03/08 03:16:26;;;;;;;15.43;13.82;;;;;;;;;;5053791;28;20197;-54
2023/03/08 03:18:53;;;;;;;14.85;13.32;;;;;;;;;;5050267;28;20375;-54
2023/03/08 03:21:19;;;;;;;14.07;12.68;;;;;;;;;;5057229;28;20279;-54
2023/03/08 03:23:45;;;;;;;14.65;13.15;;;;;;;;;;5057906;28;20729;-54
2023/03/08 03:26:12;;;;;;;13.65;12.35;;;;;;;;;;5056327;28;20203;-55
2023/03/08 03:28:39;;;;;;;14.07;12.57;;;;;;;;;;5051209;28;20179;-55
2023/03/08 03:31:09;;;;;;;13.40;12.07;;;;;;;;;;5044115;28;20370;-55
2023/03/08 03:33:34;;;;;;;13.98;12.48;;;;;;;;;;5054498;28;20202;-55
2023/03/08 03:36:01;;;;;;;13.75;12.18;;;;;;;;;;5055182;28;20677;-55
2023/03/08 03:38:27;;;;;;;12.15;10.93;;;;;;;;;;5050817;28;20563;-55
2023/03/08 03:41:03;;;;;;;12.00;10.80;;;;;;;;;;5043873;28;20278;-55
2023/03/08 03:43:29;;;;;;;12.52;11.23;;;;;;;;;;5035123;28;20179;-55
2023/03/08 03:45:56;;;;;;;12.38;11.13;;;;;;;;;;5059326;28;20265;-55
2023/03/08 03:48:22;;;;;;;12.82;11.43;;;;;;;;;;5042608;28;20191;-55
2023/03/08 03:50:58;;;;;;;11.90;10.70;;;;;;;;;;5047823;28;20202;-55
2023/03/08 03:53:24;;;;;;;11.27;10.13;;;;;;;;;;5043544;28;20182;-55
2023/03/08 03:55:50;;;;;;;11.13;10.02;;;;;;;;;;5067038;28;20577;-55
2023/03/08 03:58:16;;;;;;;11.52;10.32;;;;;;;;;;5057783;28;20179;-55
2023/03/08 04:00:42;;;;;;;11.68;10.48;;;;;;;;;;5048263;28;20203;-55
2023/03/08 04:03:08;;;;;;;11.35;10.15;;;;;;;;;;5039799;28;20188;-55
2023/03/08 04:05:34;;;;;;;10.88;9.80;;;;;;;;;;5039425;28;20217;-55
2023/03/08 04:08:00;;;;;;;10.85;9.75;;;;;;;;;;5043317;28;20180;-55
2023/03/08 04:10:26;;;;;;;10.88;9.77;;;;;;;;;;5038283;28;20605;-55
2023/03/08 04:12:52;;;;;;;10.70;9.60;;;;;;;;;;5045703;28;20208;-56
2023/03/08 04:15:18;;;;;;;9.32;8.35;;;;;;;;;;5049731;28;20237;-55
2023/03/08 04:17:44;;;;;;;9.57;8.68;;;;;;;;;;5054179;28;20592;-55
2023/03/08 04:20:10;;;;;;;10.32;9.32;;;;;;;;;;5039611;28;20215;-55
2023/03/08 04:22:36;;;;;;;10.18;9.07;;;;;;;;;;5037843;28;20214;-55
2023/03/08 04:25:03;;;;;;;9.45;8.50;;;;;;;;;;5054873;28;20217;-55
2023/03/08 04:27:29;;;;;;;9.02;8.13;;;;;;;;;;5064429;28;20602;-55
2023/03/08 04:29:54;;;;;;;9.15;8.25;;;;;;;;;;5049814;28;20215;-55
2023/03/08 04:32:20;;;;;;;8.65;7.75;;;;;;;;;;5050871;28;20215;-55
2023/03/08 04:34:46;;;;;;;9.05;8.13;;;;;;;;;;5056988;28;20298;-55
2023/03/08 04:37:12;;;;;;;8.70;7.82;;;;;;;;;;5044787;28;20192;-55
2023/03/08 04:39:38;;;;;;;9.02;8.05;;;;;;;;;;5052043;28;20176;-55
2023/03/08 04:42:04;;;;;;;8.35;7.43;;;;;;;;;;5053716;28;20188;-56
2023/03/08 04:44:30;;;;;;;8.20;7.40;;;;;;;;;;5056192;28;20190;-56
2023/03/08 04:46:56;;;;;;;8.48;7.68;;;;;;;;;;5050087;28;20219;-56
2023/03/08 04:49:23;;;;;;;7.82;7.07;;;;;;;;;;5052492;28;20230;-56
2023/03/08 04:51:49;;;;;;;8.25;7.45;;;;;;;;;;5045758;28;20285;-56
2023/03/08 04:54:15;;;;;;;8.05;7.25;;;;;;;;;;5061378;28;20280;-56
2023/03/08 04:56:41;;;;;;;7.05;6.38;;;;;;;;;;5058732;28;20206;-56
2023/03/08 04:59:06;;;;;;;8.73;7.20;;;;;;;;;;5060464;28;20214;-56
2023/03/08 05:01:32;;;;;;;7.70;6.90;;;;;;;;;;5051646;28;20226;-56
2023/03/08 05:03:58;;;;;;;8.05;6.80;;;;;;;;;;5051200;28;20250;-56
2023/03/08 05:06:26;;;;;;;7.43;6.72;;;;;;;;;;5055819;28;20590;-56
2023/03/08 05:08:52;;;;;;;6.88;6.18;;;;;;;;;;5058730;28;20220;-56
2023/03/08 05:11:21;;;;;;;6.38;5.78;;;;;;;;;;5047116;28;20183;-56
2023/03/08 05:13:47;;;;;;;7.22;6.47;;;;;;;;;;5037491;28;20315;-56
2023/03/08 05:16:12;;;;;;;6.88;6.18;;;;;;;;;;5051240;28;20183;-57
2023/03/08 05:18:38;;;;;;;6.88;6.18;;;;;;;;;;5047739;28;20186;-57
2023/03/08 05:21:11;;;;;;;6.20;5.60;;;;;;;;;;5045536;28;20211;-57
2023/03/08 05:23:37;;;;;;;6.32;5.72;;;;;;;;;;5050832;28;20186;-56
2023/03/08 05:26:04;;;;;;;6.40;5.80;;;;;;;;;;5064024;28;20210;-56
2023/03/08 05:28:30;;;;;;;6.80;5.80;;;;;;;;;;5059777;28;20187;-58
2023/03/08 05:31:00;;;;;;;6.57;5.97;;;;;;;;;;5047394;28;20180;-57
2023/03/08 05:33:26;;;;;;;5.82;5.22;;;;;;;;;;5043673;28;20175;-58
2023/03/08 05:35:53;;;;;;;5.93;5.35;;;;;;;;;;5049686;28;20194;-57
2023/03/08 05:38:19;;;;;;;6.00;5.40;;;;;;;;;;5055528;28;20187;-57
2023/03/08 05:40:45;;;;;;;6.63;5.68;;;;;;;;;;5052560;28;20201;-57
2023/03/08 05:43:11;;;;;;;5.60;5.05;;;;;;;;;;5045606;28;20494;-58
2023/03/08 05:45:37;;;;;;;5.72;5.13;;;;;;;;;;5052212;28;20232;-57
2023/03/08 05:48:03;;;;;;;5.57;4.90;;;;;;;;;;5063321;28;20198;-56
2023/03/08 05:50:29;;;;;;;5.65;5.03;;;;;;;;;;5065818;28;20186;-57
2023/03/08 05:52:55;;;;;;;5.07;4.60;;;;;;;;;;5051197;28;21978;-56
2023/03/08 05:55:21;;;;;;;5.00;4.50;;;;;;;;;;5046339;28;20187;-56
2023/03/08 05:57:47;;;;;;;5.63;5.05;;;;;;;;;;5049766;28;20237;-56
2023/03/08 06:00:13;;;;;;;5.30;4.80;;;;;;;;;;5061766;28;20211;-56
2023/03/08 06:02:39;;;;;;;5.20;4.80;;;;;;;;;;5055345;28;20290;-56
2023/03/08 06:05:05;;;;;;;4.80;4.40;;;;;;;;;;5070477;28;20237;-56
2023/03/08 06:07:31;;;;;;;4.65;4.25;;;;;;;;;;5053532;28;20225;-56
2023/03/08 06:09:57;;;;;;;5.07;4.57;;;;;;;;;;5043266;28;20180;-56
2023/03/08 06:12:23;;;;;;;4.78;4.38;;;;;;;;;;5045308;28;20176;-57
2023/03/08 06:14:49;;;;;;;4.15;3.80;;;;;;;;;;5059748;28;20201;-57
2023/03/08 06:17:15;;;;;;;4.50;4.10;;;;;;;;;;5059870;28;20254;-57
2023/03/08 06:19:40;;;;;;;4.90;4.40;;;;;;;;;;5063143;28;20232;-57
2023/03/08 06:22:06;;;;;;;4.20;3.80;;;;;;;;;;5056799;28;20233;-57
2023/03/08 06:24:32;;;;;;;4.95;4.45;;;;;;;;;;5059898;28;20194;-57
2023/03/08 06:26:58;;;;;;;4.90;4.38;;;;;;;;;;5055523;28;20578;-57
2023/03/08 06:29:24;;;;;;;4.45;4.05;;;;;;;;;;5061170;28;20190;-57
2023/03/08 06:31:50;;;;;;;4.13;3.72;;;;;;;;;;5040210;28;20179;-57
2023/03/08 06:34:16;;;;;;;4.72;4.13;;;;;;;;;;5046600;28;20183;-57
2023/03/08 06:36:42;;;;;;;4.25;3.88;;;;;;;;;;5049475;28;20183;-57
2023/03/08 06:39:09;;;;;;;4.25;3.85;;;;;;;;;;5056163;28;20199;-57
2023/03/08 06:41:35;;;;;;;4.35;3.95;;;;;;;;;;5043909;28;20178;-57
2023/03/08 06:44:01;;;;;;;4.15;3.75;;;;;;;;;;5053364;28;20263;-57
2023/03/08 06:46:27;;;;;;;4.53;4.13;;;;;;;;;;5062068;28;20223;-57
2023/03/08 06:48:53;;;;;;;4.03;3.63;;;;;;;;;;5063919;28;20462;-57
2023/03/08 06:51:19;;;;;;;4.10;3.50;;;;;;;;;;5043218;28;20593;-56
2023/03/08 06:53:45;;;;;;;3.60;3.30;;;;;;;;;;5045408;28;20271;-57
2023/03/08 06:56:12;;;;;;;3.65;3.17;;;;;;;;;;5040806;28;20191;-57
2023/03/08 06:58:38;;;;;;;3.88;3.47;;;;;;;;;;5059600;28;20190;-57
2023/03/08 07:01:04;;;;;;;3.75;3.45;;;;;;;;;;5056163;28;20203;-57
2023/03/08 07:03:31;;;;;;;4.05;3.60;;;;;;;;;;5060919;28;20218;-57
2023/03/08 07:06:04;;;;;;;3.85;3.53;;;;;;;;;;5065380;28;20210;-57
2023/03/08 07:08:30;;;;;;;3.40;3.10;;;;;;;;;;5076231;28;20265;-57
2023/03/08 07:10:57;;;;;;;3.17;2.97;;;;;;;;;;5065983;28;20261;-57
2023/03/08 07:13:23;;;;;;;4.78;4.03;;;;;;;;;;5073791;28;20183;-55
2023/03/08 07:15:49;;;;;;;3.83;3.42;;;;;;;;;;5065082;28;20564;-54
2023/03/08 07:18:15;;;;;;;4.75;3.70;;;;;;;;;;5065662;28;20835;-55
2023/03/08 07:20:41;;;;;;;5.53;4.28;;;;;;;;;;5056741;28;20557;-53
2023/03/08 07:23:07;;;;;;;6.68;3.95;;;;;;;;;;5047022;28;20222;-53
2023/03/08 07:25:33;;;;;;;7.53;3.72;;;;;;;;;;5071361;28;20604;-53
2023/03/08 07:27:59;;;;;;;6.03;4.97;;;;;;;;;;5067274;28;20206;-53
2023/03/08 07:30:25;;;;;;;6.60;5.93;;;;;;;;;;5052877;28;20600;-53
2023/03/08 07:32:54;;;;;;;11.88;8.55;;;;;;;;;;5067304;28;20213;-53
2023/03/08 07:35:20;;;;;;;9.70;7.97;;;;;;;;;;5067294;28;20179;-53
2023/03/08 07:37:47;;;;;;;21.00;13.70;;;;;;;;;;5061048;28;21157;-53
2023/03/08 07:40:15;;;;;;;28.77;18.30;;;;;;;;;;5061205;28;20190;-53
2023/03/08 07:42:40;;;;;;;42.42;26.02;;;;;;;;;;5048462;28;20183;-53
2023/03/08 07:45:07;;;;;;;43.88;27.05;;;;;;;;;;5064180;28;20271;-53
2023/03/08 07:47:33;;;;;;;34.15;21.60;;;;;;;;;;5062568;28;20210;-53
2023/03/08 07:49:59;;;;;;;33.30;19.65;;;;;;;;;;5047484;28;20180;-49
2023/03/08 07:52:28;;;;;;;26.80;15.75;;;;;;;;;;5053958;28;20439;-49
2023/03/08 07:54:54;;;;;;;20.38;14.00;;;;;;;;;;5061317;28;20187;-49
2023/03/08 07:57:20;;;;;;;21.08;12.80;;;;;;;;;;5063192;28;20189;-56
2023/03/08 07:59:46;;;;;;;14.35;10.32;;;;;;;;;;5058694;28;20218;-49
2023/03/08 08:02:12;;;;;;;11.88;9.20;;;;;;;;;;5048743;28;20191;-49
2023/03/08 08:04:39;;;;;;;15.77;9.90;;;;;;;;;;5054852;28;20231;-49
2023/03/08 08:07:05;;;;;;;12.27;9.77;;;;;;;;;;5054630;28;20211;-49
2023/03/08 08:09:31;;;;;;;10.80;8.25;;;;;;;;;;5053980;28;20185;-49
2023/03/08 08:11:57;;;;;;;10.55;8.18;;;;;;;;;;5045947;28;20270;-49
2023/03/08 08:14:23;;;;;;;11.63;8.40;;;;;;;;;;5053405;28;20183;-49
2023/03/08 08:16:49;;;;;;;11.07;7.03;;;;;;;;;;5051796;28;20201;-49
2023/03/08 08:19:16;;;;;;;10.18;7.13;;;;;;;;;;5032595;28;20200;-49
2023/03/08 08:21:41;;;;;;;8.23;6.50;;;;;;;;;;5039481;28;20551;-49
2023/03/08 08:24:08;;;;;;;10.05;6.80;;;;;;;;;;5055521;28;20183;-49
2023/03/08 08:26:33;;;;;;;8.55;6.28;;;;;;;;;;5050078;28;20210;-49
2023/03/08 08:28:59;;;;;;;8.60;6.10;;;;;;;;;;5055801;28;20282;-49
2023/03/08 08:31:29;;;;;;;6.97;5.82;;;;;;;;;;5039127;28;20294;-49
2023/03/08 08:33:55;;;;;;;7.65;5.88;;;;;;;;;;5045870;28;20175;-49
2023/03/08 08:36:21;;;;;;;8.10;5.93;;;;;;;;;;5053682;28;20451;-49
2023/03/08 08:38:47;;;;;;;9.23;6.53;;;;;;;;;;5060577;28;20189;-49
2023/03/08 08:41:14;;;;;;;10.43;6.05;;;;;;;;;;5049130;28;20282;-49
2023/03/08 08:43:41;;;;;;;10.00;6.60;;;;;;;;;;5059427;28;20453;-49
2023/03/08 08:46:06;;;;;;;9.82;6.35;;;;;;;;;;5051389;28;20582;-49
2023/03/08 08:48:32;;;;;;;8.00;5.78;;;;;;;;;;5054384;28;20179;-49
2023/03/08 08:50:59;;;;;;;8.32;6.03;;;;;;;;;;5050780;28;20186;-49
2023/03/08 08:53:25;;;;;;;8.43;6.53;;;;;;;;;;5058383;28;20182;-49
2023/03/08 08:55:51;;;;;;;9.80;6.93;;;;;;;;;;5050610;28;20225;-49
2023/03/08 08:58:17;;;;;;;9.43;6.18;;;;;;;;;;5065288;28;20265;-49
2023/03/08 09:00:43;;;;;;;8.90;5.72;;;;;;;;;;5049416;28;20602;-49
2023/03/08 09:03:09;;;;;;;8.88;6.15;;;;;;;;;;5065741;28;20179;-49
2023/03/08 09:05:38;;;;;;;7.97;5.93;;;;;;;;;;5069566;28;20450;-49
2023/03/08 09:08:04;;;;;;;10.15;6.70;;;;;;;;;;5050324;28;20201;-49
2023/03/08 09:10:31;;;;;;;7.45;6.10;;;;;;;;;;5051192;28;20187;-49
2023/03/08 09:12:57;;;;;;;8.73;5.97;;;;;;;;;;5043231;28;20202;-49
2023/03/08 09:15:23;;;;;;;9.45;7.15;;;;;;;;;;5060982;28;21099;-49
2023/03/08 09:17:49;;;;;;;7.20;6.15;;;;;;;;;;5049720;28;20254;-49
2023/03/08 09:20:16;;;;;;;8.00;6.30;;;;;;;;;;5049620;28;20673;-49
2023/03/08 09:22:42;;;;;;;7.50;5.95;;;;;;;;;;5055734;28;20179;-49
2023/03/08 09:25:08;;;;;;;7.75;6.35;;;;;;;;;;5046932;28;20183;-49
2023/03/08 09:27:34;;;;;;;6.88;5.93;;;;;;;;;;5052878;28;20556;-49
2023/03/08 09:30:00;;;;;;;8.93;6.47;;;;;;;;;;5052514;28;20203;-49
2023/03/08 09:32:26;;;;;;;8.32;5.88;;;;;;;;;;5064968;28;20201;-49
2023/03/08 09:34:53;;;;;;;11.73;6.43;;;;;;;;;;5047649;28;20187;-49
2023/03/08 09:37:19;;;;;;;7.78;6.22;;;;;;;;;;5058412;28;20183;-49
2023/03/08 09:39:45;;;;;;;6.82;5.68;;;;;;;;;;5059593;28;20431;-49
2023/03/08 09:42:23;;;;;;;8.63;6.07;;;;;;;;;;5061470;28;20202;-49
2023/03/08 09:45:01;;;;;;;7.63;5.95;;;;;;;;;;5043542;28;20186;-49
2023/03/08 09:47:38;;;;;;;6.78;5.75;;;;;;;;;;5063319;28;20232;-49
2023/03/08 09:50:11;;;;;;;8.60;6.30;;;;;;;;;;5056938;28;20199;-49
2023/03/08 09:52:47;;;;;;;7.13;5.25;;;;;;;;;;5062328;28;20189;-49
2023/03/08 09:55:19;;;;;;;5.70;5.10;;;;;;;;;;5047704;28;20175;-49
2023/03/08 09:57:48;;;;;;;7.05;5.72;;;;;;;;;;5057121;28;20609;-49
2023/03/08 10:00:20;;;;;;;6.80;5.10;;;;;;;;;;5065293;28;20266;-50
2023/03/08 10:02:54;;;;;;;5.50;4.80;;;;;;;;;;5053620;28;20255;-49
2023/03/08 10:05:27;;;;;;;6.85;5.15;;;;;;;;;;5045983;28;20525;-50
2023/03/08 10:08:19;;;;;;;6.45;4.90;;;;;;;;;;5057785;28;20277;-49
2023/03/08 10:10:48;;;;;;;6.18;4.90;;;;;;;;;;5047880;28;20222;-49
2023/03/08 10:13:33;;;;;;;4.93;4.43;;;;;;;;;;5062754;28;20577;-50
2023/03/08 10:16:19;;;;;;;6.05;4.85;;;;;;;;;;5043040;28;20194;-50
2023/03/08 10:18:48;;;;;;;5.38;4.53;;;;;;;;;;5060268;28;20193;-50
2023/03/08 10:21:16;;;;;;;5.13;4.38;;;;;;;;;;5050796;28;20552;-50
2023/03/08 10:23:43;;;;;;;5.97;4.70;;;;;;;;;;5061976;28;20188;-50
2023/03/08 10:26:10;;;;;;;7.45;4.72;;;;;;;;;;5055409;28;20490;-50
2023/03/08 10:28:36;;;;;;;6.32;4.60;;;;;;;;;;5051162;28;20183;-49
2023/03/08 10:31:12;;;;;;;5.00;4.50;;;;;;;;;;5043115;28;20180;-50
2023/03/08 10:33:38;;;;;;;5.18;4.47;;;;;;;;;;5044455;28;20225;-50
2023/03/08 10:36:11;;;;;;;5.47;4.82;;;;;;;;;;5050586;28;20179;-50
2023/03/08 10:38:37;;;;;;;5.50;4.88;;;;;;;;;;5043203;28;20183;-50
2023/03/08 10:41:13;;;;;;;5.85;4.82;;;;;;;;;;5050574;28;20225;-50
2023/03/08 10:43:41;;;;;;;7.28;5.43;;;;;;;;;;5053948;28;20543;-50
2023/03/08 10:46:16;;;;;;;5.80;4.78;;;;;;;;;;5042814;28;20227;-50
2023/03/08 10:48:41;;;;;;;6.90;5.07;;;;;;;;;;5058509;28;20272;-50
2023/03/08 10:51:21;;;;;;;6.78;5.32;;;;;;;;;;5055798;28;20267;-49
2023/03/08 10:54:03;;;;;;;6.20;4.90;;;;;;;;;;5057130;28;20175;-51
2023/03/08 10:56:43;;;;;;;4.82;4.32;;;;;;;;;;5060329;28;20228;-50
2023/03/08 10:59:31;;;;;;;4.93;4.43;;;;;;;;;;5050265;28;20187;-50
2023/03/08 11:01:58;;;;;;;6.03;4.55;;;;;;;;;;5046985;28;20171;-50
2023/03/08 11:04:25;;;;;;;6.82;4.88;;;;;;;;;;5055590;28;20562;-50
2023/03/08 11:06:51;;;;;;;5.45;4.35;;;;;;;;;;5057811;28;20640;-50
2023/03/08 11:09:26;;;;;;;5.53;4.63;;;;;;;;;;5042239;28;20182;-49
2023/03/08 11:11:52;;;;;;;4.30;3.47;;;;;;;;;;5054991;28;20178;-49
2023/03/08 11:14:18;;;;;;;2.97;2.67;;;;;;;;;;5057330;28;20179;-50
2023/03/08 11:16:59;;;;;;;2.67;2.47;;;;;;;;;;5045812;28;20185;-54
2023/03/08 11:19:43;;;;;;;4.65;2.33;;;;;;;;;;5050895;28;20935;-53
2023/03/08 11:22:25;;;;;;;3.42;2.05;;;;;;;;;;5062221;28;20239;-51
2023/03/08 11:25:11;;;;;;;3.58;2.35;;;;;;;;;;5050442;28;20179;-50
2023/03/08 11:27:47;;;;;;;2.78;1.83;;;;;;;;;;5052642;28;20215;-51
2023/03/08 11:30:31;;;;;;;3.70;2.17;;;;;;;;;;5054776;28;20214;-50
2023/03/08 11:33:27;;;;;;;8.05;2.13;;;;;;;;;;5037627;28;20176;-52
2023/03/08 11:36:13;;;;;;;5.60;2.50;;;;;;;;;;5041179;28;20183;-52
2023/03/08 11:38:39;;;;;;;3.90;2.30;;;;;;;;;;5035997;28;20217;-50
2023/03/08 11:41:05;;;;;;;4.47;2.00;;;;;;;;;;5061515;28;20182;-51
2023/03/08 11:43:41;;;;;;;5.45;2.10;;;;;;;;;;5051536;28;20186;-49
2023/03/08 11:46:07;;;;;;;3.25;1.90;;;;;;;;;;5035544;28;20229;-48
2023/03/08 11:48:36;;;;;;;12.65;2.25;;;;;;;;;;5057647;28;20483;-52
2023/03/08 11:51:21;;;;;;;3.38;2.42;;;;;;;;;;5050864;28;20184;-51
2023/03/08 11:53:54;;;;;;;2.45;2.08;;;;;;;;;;5047361;28;20184;-55
2023/03/08 11:56:25;;;;;;;2.45;2.03;;;;;;;;;;5056724;28;20288;-48
2023/03/08 11:58:54;;;;;;;5.97;2.10;;;;;;;;;;5059447;28;20220;-48
2023/03/08 12:01:23;;;;;;;5.75;2.65;;;;;;;;;;5041931;28;20190;-48
2023/03/08 12:03:52;;;;;;;5.07;2.13;;;;;;;;;;5041993;28;20219;-48
2023/03/08 12:06:30;;;;;;;4.20;1.83;;;;;;;;;;5048246;28;20257;-48
2023/03/08 12:09:15;;;;;;;7.30;2.28;;;;;;;;;;5056502;28;20582;-47
2023/03/08 12:11:42;;;;;;;8.20;2.00;;;;;;;;;;5040574;28;20228;-47
2023/03/08 12:14:15;;;;;;;6.45;2.00;;;;;;;;;;5055315;28;20180;-47
2023/03/08 12:16:46;;;;;;;2.47;1.75;;;;;;;;;;5046714;28;20277;-47
2023/03/08 12:19:19;;;;;;;4.20;1.90;;;;;;;;;;5051370;28;20478;-48
2023/03/08 12:21:50;;;;;;;2.88;1.98;;;;;;;;;;5050767;28;20174;-47
2023/03/08 12:24:22;;;;;;;4.15;1.90;;;;;;;;;;5057152;28;20180;-48
2023/03/08 12:27:08;;;;;;;2.03;1.75;;;;;;;;;;5052551;28;20187;-47
2023/03/08 12:29:44;;;;;;;3.13;1.92;;;;;;;;;;5050794;28;20194;-47
2023/03/08 12:32:11;;;;;;;3.45;1.88;;;;;;;;;;5046446;28;20237;-47
2023/03/08 12:34:38;;;;;;;4.88;1.92;;;;;;;;;;5053999;28;20182;-47
2023/03/08 12:37:16;;;;;;;2.40;1.83;;;;;;;;;;5058716;28;20183;-47
2023/03/08 12:39:42;;;;;;;3.72;1.90;;;;;;;;;;5050551;28;20760;-47
2023/03/08 12:42:12;;;;;;;4.55;2.03;;;;;;;;;;5070960;28;20293;-47
2023/03/08 12:44:38;;;;;;;2.13;1.88;;;;;;;;;;5062765;28;20182;-47
2023/03/08 12:47:13;;;;;;;5.50;1.90;;;;;;;;;;5074255;28;20279;-47
2023/03/08 12:50:05;;;;;;;4.30;2.05;;;;;;;;;;5074356;28;20208;-47
2023/03/08 12:52:34;;;;;;;4.65;1.85;;;;;;;;;;5071303;28;20206;-47
2023/03/08 12:54:59;;;;;;;2.15;1.88;;;;;;;;;;5057565;28;20179;-46
2023/03/08 12:57:33;;;;;;;3.58;1.88;;;;;;;;;;5059690;28;20193;-46
2023/03/08 13:00:01;;;;;;;3.72;1.80;;;;;;;;;;5064135;28;20277;-46
2023/03/08 13:02:30;;;;;;;3.80;1.85;;;;;;;;;;5049780;28;20185;-46
2023/03/08 13:05:16;;;;;;;3.40;2.13;;;;;;;;;;5057956;28;20202;-46
2023/03/08 13:07:55;;;;;;;2.40;1.70;;;;;;;;;;5049253;28;20198;-46
2023/03/08 13:10:20;;;;;;;4.18;1.80;;;;;;;;;;5049609;28;20177;-46
2023/03/08 13:12:59;;;;;;;4.55;1.65;;;;;;;;;;5065173;28;20449;-46
2023/03/08 13:15:26;;;;;;;3.40;1.90;;;;;;;;;;5071321;28;20223;-46
2023/03/08 13:18:04;;;;;;;4.40;1.80;;;;;;;;;;5063402;28;20202;-46
2023/03/08 13:20:39;;;;;;;4.18;2.30;;;;;;;;;;5037638;28;20458;-61
2023/03/08 13:23:14;;;;;;;6.70;2.03;;;;;;;;;;5043889;28;20206;-49
2023/03/08 13:25:40;;;;;;;4.68;2.13;;;;;;;;;;5039951;28;20183;-49
2023/03/08 13:28:14;;;;;;;2.90;2.03;;;;;;;;;;5041674;28;20225;-49
2023/03/08 13:30:57;;;;;;;8.38;2.00;;;;;;;;;;5036096;28;20621;-49
2023/03/08 13:33:23;;;;;;;3.83;1.95;;;;;;;;;;5048611;28;20179;-49
2023/03/08 13:35:59;;;;;;;8.43;1.98;;;;;;;;;;5043101;28;20190;-49
2023/03/08 13:38:26;;;;;;;4.25;2.10;;;;;;;;;;5061781;28;20205;-49
2023/03/08 13:40:53;;;;;;;5.45;2.10;;;;;;;;;;5051070;28;20172;-48
2023/03/08 13:43:23;;;;;;;5.30;2.22;;;;;;;;;;5044132;28;20218;-48
2023/03/08 13:45:50;;;;;;;9.07;2.03;;;;;;;;;;5049714;28;20541;-49
2023/03/08 13:48:16;;;;;;;5.85;1.80;;;;;;;;;;5052668;28;20198;-48
2023/03/08 13:50:43;;;;;;;6.35;2.08;;;;;;;;;;5054026;28;20221;-48
2023/03/08 13:53:13;;;;;;;4.80;1.60;;;;;;;;;;5054032;28;20521;-48
2023/03/08 13:55:42;;;;;;;4.97;1.80;;;;;;;;;;5052808;28;20170;-48
2023/03/08 13:58:14;;;;;;;3.67;2.00;;;;;;;;;;5057708;28;20187;-48
2023/03/08 14:00:40;;;;;;;3.17;1.80;;;;;;;;;;5065089;28;20198;-48
2023/03/08 14:03:06;;;;;;;11.80;1.98;;;;;;;;;;5062559;28;20567;-48
2023/03/08 14:05:34;;;;;;;5.90;1.60;;;;;;;;;;5053247;28;20252;-48
2023/03/08 14:08:02;;;;;;;3.80;1.63;;;;;;;;;;5052837;28;20194;-48
2023/03/08 14:10:39;;;;;;;6.35;1.83;;;;;;;;;;5058333;28;20233;-48
2023/03/08 14:13:07;;;;;;;6.30;1.65;;;;;;;;;;5071044;28;20212;-48
2023/03/08 14:15:34;;;;;;;7.28;1.80;;;;;;;;;;5060390;28;20178;-48
2023/03/08 14:18:03;;;;;;;2.85;1.52;;;;;;;;;;5065740;28;20198;-48
2023/03/08 14:20:29;;;;;;;2.22;1.67;;;;;;;;;;5060075;28;20887;-48
2023/03/08 14:22:55;;;;;;;4.85;1.50;;;;;;;;;;5052098;28;20228;-48
2023/03/08 14:25:24;;;;;;;4.30;1.73;;;;;;;;;;5049683;28;20290;-48
2023/03/08 14:27:50;;;;;;;4.57;1.65;;;;;;;;;;5049964;28;20269;-48
2023/03/08 14:30:26;;;;;;;4.75;1.73;;;;;;;;;;5058276;28;20196;-49
2023/03/08 14:32:57;;;;;;;3.22;1.50;;;;;;;;;;5058601;28;20191;-48
2023/03/08 14:35:25;;;;;;;3.38;1.83;;;;;;;;;;5074500;28;20179;-48
2023/03/08 14:37:54;;;;;;;2.83;1.58;;;;;;;;;;5060819;28;20217;-48
2023/03/08 14:40:29;;;;;;;2.40;1.60;;;;;;;;;;5068489;28;20291;-48